createdAt,value
2022-11-17T00:01:45.347Z,62.60
2022-11-17T00:06:47.589Z,62.50
2022-11-17T00:12:10.076Z,62.70
2022-11-17T00:17:13.817Z,62.80
2022-11-17T00:22:16.009Z,62.80
2022-11-17T00:27:18.451Z,62.90
2022-11-17T00:32:40.563Z,62.90
2022-11-17T00:38:02.744Z,62.90
2022-11-17T00:43:04.907Z,62.90
2022-11-17T00:48:07.191Z,63.00
2022-11-17T00:53:09.369Z,63.10
2022-11-17T00:58:11.528Z,63.10
2022-11-17T01:03:13.711Z,63.10
2022-11-17T01:08:15.905Z,63.30
2022-11-17T01:13:18.397Z,63.30
2022-11-17T01:18:20.786Z,63.30
2022-11-17T01:23:22.982Z,63.50
2022-11-17T01:28:25.209Z,63.50
2022-11-17T01:33:27.863Z,63.40
2022-11-17T01:38:30.570Z,63.60
2022-11-17T01:48:52.962Z,63.70
2022-11-17T01:53:55.180Z,63.70
2022-11-17T01:59:05.616Z,63.70
2022-11-17T02:04:07.811Z,63.70
2022-11-17T02:09:10.101Z,63.80
2022-11-17T02:14:13.445Z,63.90
2022-11-17T02:19:16.894Z,64.00
2022-11-17T02:45:07.025Z,64.00
2022-11-17T02:50:11.283Z,64.10
2022-11-17T02:55:14.464Z,64.10
2022-11-17T03:00:19.027Z,64.20
2022-11-17T03:21:21.982Z,64.10
2022-11-17T03:26:30.145Z,64.10
2022-11-17T03:31:33.896Z,64.10
2022-11-17T03:36:41.749Z,63.90
2022-11-17T03:41:48.522Z,64.00
2022-11-17T03:46:54.433Z,64.10
2022-11-17T03:51:57.444Z,64.00
2022-11-17T04:02:18.519Z,64.00
2022-11-17T04:07:20.800Z,64.20
2022-11-17T04:12:43.138Z,64.10
2022-11-17T04:17:45.294Z,64.10
2022-11-17T04:23:07.199Z,64.00
2022-11-17T04:28:29.366Z,64.10
2022-11-17T04:33:31.785Z,64.30
2022-11-17T04:38:34.248Z,64.20
2022-11-17T04:43:39.046Z,64.20
2022-11-17T04:48:41.251Z,64.20
2022-11-17T04:53:44.839Z,64.20
2022-11-17T04:58:47.493Z,64.20
2022-11-17T05:03:52.769Z,64.20
2022-11-17T05:08:56.720Z,64.20
2022-11-17T05:13:59.593Z,64.30
2022-11-17T05:19:02.471Z,64.40
2022-11-17T05:24:05.081Z,64.30
2022-11-17T05:29:08.961Z,64.20
2022-11-17T05:34:12.811Z,64.30
2022-11-17T05:39:15.103Z,64.50
2022-11-17T05:44:17.347Z,64.60
2022-11-17T05:49:19.607Z,64.70
2022-11-17T05:54:21.873Z,64.80
2022-11-17T06:04:35.166Z,64.80
2022-11-17T06:09:41.581Z,65.00
2022-11-17T06:14:43.902Z,65.20
2022-11-17T06:19:54.125Z,65.20
2022-11-17T06:24:57.226Z,65.20
2022-11-17T06:30:03.672Z,65.40
2022-11-17T06:35:08.847Z,65.50
2022-11-17T06:40:13.492Z,65.50
2022-11-17T06:45:15.750Z,65.50
2022-11-17T06:50:18.023Z,65.50
2022-11-17T06:55:20.261Z,65.50
2022-11-17T07:00:22.520Z,65.50
2022-11-17T07:05:24.751Z,65.70
2022-11-17T07:10:28.293Z,67.10
2022-11-17T07:15:30.682Z,67.80
2022-11-17T07:20:32.944Z,67.90
2022-11-17T07:25:35.244Z,67.50
2022-11-17T07:30:37.524Z,67.50
2022-11-17T07:35:39.773Z,66.30
2022-11-17T07:40:42.016Z,64.30
2022-11-17T07:45:44.235Z,63.40
2022-11-17T07:50:46.446Z,62.00
2022-11-17T07:55:48.635Z,61.20
2022-11-17T08:00:50.879Z,60.50
2022-11-17T08:05:53.540Z,59.60
2022-11-17T08:10:55.768Z,58.30
2022-11-17T08:15:59.346Z,56.40
2022-11-17T08:21:03.927Z,56.80
2022-11-17T08:26:08.183Z,53.30
2022-11-17T08:31:10.402Z,53.80
2022-11-17T08:36:12.604Z,53.60
2022-11-17T08:41:14.910Z,56.00
2022-11-17T08:46:17.161Z,56.90
2022-11-17T08:51:19.497Z,52.00
2022-11-17T08:56:22.007Z,51.80
2022-11-17T09:01:24.302Z,51.10
2022-11-17T09:06:26.571Z,51.50
2022-11-17T09:11:28.765Z,51.70
2022-11-17T09:16:31.013Z,51.50
2022-11-17T09:21:34.057Z,52.70
2022-11-17T09:26:40.945Z,52.90
2022-11-17T09:31:43.256Z,53.10
2022-11-17T09:36:45.484Z,53.50
2022-11-17T09:41:51.610Z,53.80
2022-11-17T09:57:45.636Z,53.70
2022-11-17T10:02:48.835Z,54.60
2022-11-17T10:07:53.932Z,55.10
2022-11-17T10:12:58.756Z,55.00
2022-11-17T10:18:00.945Z,55.40
2022-11-17T10:23:03.802Z,55.60
2022-11-17T10:28:09.216Z,55.90
2022-11-17T10:33:13.723Z,56.40
2022-11-17T10:38:21.803Z,56.80
2022-11-17T10:43:28.702Z,57.50
2022-11-17T10:48:35.661Z,57.90
2022-11-17T10:53:45.725Z,58.20
2022-11-17T11:04:35.692Z,58.70
2022-11-17T11:09:45.444Z,59.90
2022-11-17T11:14:54.197Z,59.60
2022-11-17T11:19:57.039Z,59.70
2022-11-17T11:31:02.357Z,59.50
2022-11-17T11:51:38.892Z,60.30
2022-11-17T11:56:44.432Z,60.90
2022-11-17T12:07:15.513Z,60.90
2022-11-17T12:12:22.606Z,61.10
2022-11-17T12:17:26.378Z,61.60
2022-11-17T12:43:26.853Z,60.80
2022-11-17T12:48:39.848Z,61.40
2022-11-17T13:04:53.161Z,61.60
2022-11-17T13:09:57.311Z,62.20
2022-11-17T13:15:02.879Z,62.30
2022-11-17T13:20:30.655Z,62.20
2022-11-17T13:25:34.261Z,62.30
2022-11-17T13:30:36.918Z,62.20
2022-11-17T13:35:39.154Z,62.10
2022-11-17T13:40:43.432Z,62.30
2022-11-17T13:45:47.259Z,62.50
2022-11-17T13:50:49.514Z,63.10
2022-11-17T13:55:52.472Z,63.00
2022-11-17T14:00:57.722Z,62.90
2022-11-17T14:06:00.049Z,62.80
2022-11-17T14:11:14.363Z,62.70
2022-11-17T14:16:40.530Z,62.90
2022-11-17T14:32:37.105Z,63.00
2022-11-17T14:37:39.381Z,63.90
2022-11-17T14:42:42.576Z,64.20
2022-11-17T14:47:44.835Z,63.90
2022-11-17T14:52:47.131Z,63.80
2022-11-17T14:57:49.391Z,63.80
2022-11-17T15:02:51.648Z,63.90
2022-11-17T15:07:56.516Z,64.10
2022-11-17T15:12:58.795Z,64.10
2022-11-17T15:18:00.970Z,63.90
2022-11-17T15:23:03.756Z,63.60
2022-11-17T15:28:05.988Z,63.60
2022-11-17T15:33:08.300Z,63.60
2022-11-17T15:38:32.192Z,63.60
2022-11-17T15:43:37.479Z,63.50
2022-11-17T15:48:43.311Z,64.10
2022-11-17T15:53:46.988Z,63.80
2022-11-17T15:58:55.128Z,63.80
2022-11-17T16:03:59.909Z,63.50
2022-11-17T16:09:02.177Z,63.40
2022-11-17T16:14:05.518Z,63.60
2022-11-17T16:19:07.944Z,63.30
2022-11-17T16:24:11.890Z,63.50
2022-11-17T16:29:14.241Z,63.40
2022-11-17T16:34:18.010Z,63.50
2022-11-17T16:39:20.926Z,63.20
2022-11-17T16:44:23.241Z,63.30
2022-11-17T16:49:25.575Z,63.30
2022-11-17T16:54:27.833Z,63.20
2022-11-17T17:12:30.473Z,62.40
2022-11-17T17:17:33.475Z,63.60
2022-11-17T17:22:35.668Z,63.20
2022-11-17T17:27:38.013Z,63.00
2022-11-17T17:32:40.268Z,63.00
2022-11-17T17:37:42.455Z,63.10
2022-11-17T17:42:44.675Z,63.90
2022-11-17T17:47:46.903Z,63.00
2022-11-17T17:52:49.462Z,63.30
2022-11-17T17:57:51.656Z,63.20
2022-11-17T18:02:54.422Z,63.30
2022-11-17T18:07:56.855Z,63.30
2022-11-17T18:12:59.075Z,63.40
2022-11-17T18:18:01.527Z,63.40
2022-11-17T18:23:03.877Z,63.60
2022-11-17T18:28:06.119Z,63.60
2022-11-17T18:33:08.360Z,63.80
2022-11-17T18:38:10.622Z,63.60
2022-11-17T18:43:12.946Z,64.40
2022-11-17T18:48:15.207Z,63.80
2022-11-17T18:53:17.752Z,63.80
2022-11-17T18:58:22.797Z,63.80
2022-11-17T19:03:25.229Z,63.70
2022-11-17T19:08:31.076Z,63.90
2022-11-17T19:13:36.817Z,64.00
2022-11-17T19:18:40.025Z,63.50
2022-11-17T19:23:49.534Z,63.90
2022-11-17T19:28:55.943Z,63.90
2022-11-17T19:33:58.610Z,64.00
2022-11-17T19:39:02.232Z,64.00
2022-11-17T19:44:07.442Z,64.00
2022-11-17T19:49:11.487Z,63.80
2022-11-17T19:54:14.431Z,63.90
2022-11-17T19:59:17.008Z,63.50
2022-11-17T20:04:19.503Z,63.40
2022-11-17T20:09:21.831Z,63.70
2022-11-17T20:14:24.168Z,63.50
2022-11-17T20:19:26.427Z,63.10
2022-11-17T20:24:28.870Z,63.40
2022-11-17T20:29:31.121Z,63.00
2022-11-17T20:34:33.400Z,63.00
2022-11-17T20:39:35.612Z,63.00
2022-11-17T20:44:37.873Z,63.00
2022-11-17T20:49:40.096Z,63.50
2022-11-17T20:54:42.320Z,63.70
2022-11-17T20:59:45.240Z,63.60
2022-11-17T21:04:47.632Z,63.80
2022-11-17T21:09:49.979Z,64.20
2022-11-17T21:14:52.189Z,64.20
2022-11-17T21:19:54.431Z,64.60
2022-11-17T21:24:56.724Z,64.50
2022-11-17T21:29:59.344Z,64.30
2022-11-17T21:35:01.658Z,63.90
2022-11-17T21:40:04.156Z,63.90
2022-11-17T21:45:08.032Z,63.90
2022-11-17T21:50:10.615Z,63.70
2022-11-17T21:55:12.829Z,63.40
2022-11-17T22:00:16.548Z,63.70
2022-11-17T22:05:19.222Z,63.90
2022-11-17T22:10:21.625Z,64.00
2022-11-17T22:15:23.826Z,63.40
2022-11-17T22:20:26.078Z,63.70
2022-11-17T22:25:44.941Z,63.40
2022-11-17T22:30:47.957Z,63.00
2022-11-17T22:35:50.321Z,63.30
2022-11-17T22:40:52.581Z,63.40
2022-11-17T22:45:54.981Z,62.80
2022-11-17T22:50:59.977Z,63.10
2022-11-17T22:56:05.548Z,62.60
2022-11-17T23:01:08.284Z,62.50
2022-11-17T23:06:10.792Z,62.80
2022-11-17T23:11:36.055Z,62.90
2022-11-17T23:16:35.961Z,62.80
2022-11-17T23:21:38.214Z,62.40
2022-11-17T23:26:41.832Z,62.50
2022-11-17T23:31:44.056Z,62.60
2022-11-17T23:36:46.452Z,62.60
2022-11-17T23:41:48.690Z,62.30
2022-11-17T23:46:50.975Z,62.30
2022-11-17T23:51:53.209Z,62.80
2022-11-17T23:56:55.430Z,62.20
